WXM80 ListenWXM80 Stop

You find our weather info also at:

UK Metoffice

WeatherCloud

Weather Underground

Northeastern Weather Network

AWEKAS

Citizen Weather Observer Program (CWOP)

HAMweather, WeatherForYou, PWS Weather


Weather Underground History page Text

Daily Summary for June 18, 2017 Units:  Both    English   Metric
« Previous Day
Next Day »
Daily Weekly Monthly Yearly Custom
  High: Low: Average:
Temperature: 85.3 °F /  29.6 °C 68.8 °F /  20.4 °C 75.9 °F /  24.4 °C
Dew Point: 78.3 °F /  25.7 °C 67.9 °F /  19.9 °C 72.2 °F /  22.3 °C
Humidity: 99 % 72 % 89 %
Wind Speed: 7.1 mph /  11.4 km/h - 1.6 mph /  2.6 km/h
Wind Gust: 15.0 mph /  24.1 km/h - -
Wind:- - South
Pressure: 29.89 in /  1012.1 hPa 29.75 in /  1007.3 hPa -
Precipitation: 0.00 in /  0 mm    
Historical Graphs
 
 
Tabular Data for June 18, 2017
Time Temperature Dew Point Pressure Wind Wind Speed Wind Gust Humidity Rainfall Rate (Hourly)
00:01 68.8 °F /  20.4 °C 67.9 °F /  19.9 °C 29.89 in /  1012.1 hPa Calm   1.2 mph /  1.9 km/h 97 % 0.00 in /  0 mm
00:06 68.8 °F /  20.4 °C 67.9 °F /  19.9 °C 29.89 in /  1012.1 hPa Calm     97 % 0.00 in /  0 mm
00:11 68.8 °F /  20.4 °C 67.9 °F /  19.9 °C 29.89 in /  1012.1 hPa Calm     97 % 0.00 in /  0 mm
00:16 68.9 °F /  20.5 °C 68.0 °F /  20 °C 29.89 in /  1012.1 hPa SE 0.3 mph /  0.5 km/h 1.2 mph /  1.9 km/h 97 % 0.00 in /  0 mm
00:21 68.9 °F /  20.5 °C 68.0 °F /  20 °C 29.89 in /  1012.1 hPa Calm   3.5 mph /  5.6 km/h 97 % 0.00 in /  0 mm
00:26 69.0 °F /  20.6 °C 68.4 °F /  20.2 °C 29.89 in /  1012.1 hPa SSE 0.7 mph /  1.1 km/h 3.5 mph /  5.6 km/h 98 % 0.00 in /  0 mm
00:31 69.0 °F /  20.6 °C 68.4 °F /  20.2 °C 29.89 in /  1012.1 hPa Calm     98 % 0.00 in /  0 mm
00:36 69.1 °F /  20.6 °C 68.5 °F /  20.3 °C 29.89 in /  1012.1 hPa Calm     98 % 0.00 in /  0 mm
00:41 69.1 °F /  20.6 °C 68.5 °F /  20.3 °C 29.89 in /  1012.1 hPa SE 0.2 mph /  0.3 km/h 2.3 mph /  3.7 km/h 98 % 0.00 in /  0 mm
00:46 69.2 °F /  20.7 °C 68.6 °F /  20.3 °C 29.88 in /  1011.7 hPa SSE 0.2 mph /  0.3 km/h 2.3 mph /  3.7 km/h 98 % 0.00 in /  0 mm
00:51 69.3 °F /  20.7 °C 68.7 °F /  20.4 °C 29.88 in /  1011.7 hPa Calm     98 % 0.00 in /  0 mm
00:56 69.3 °F /  20.7 °C 68.7 °F /  20.4 °C 29.88 in /  1011.7 hPa SE 0.1 mph /  0.2 km/h 3.5 mph /  5.6 km/h 98 % 0.00 in /  0 mm
01:01 69.3 °F /  20.7 °C 68.7 °F /  20.4 °C 29.88 in /  1011.7 hPa Calm     98 % 0.00 in /  0 mm
01:06 69.4 °F /  20.8 °C 68.8 °F /  20.4 °C 29.88 in /  1011.7 hPa SE 0.1 mph /  0.2 km/h 1.0 mph /  1.6 km/h 98 % 0.00 in /  0 mm
01:11 69.4 °F /  20.8 °C 68.8 °F /  20.4 °C 29.88 in /  1011.7 hPa Calm   2.3 mph /  3.7 km/h 98 % 0.00 in /  0 mm
01:16 69.4 °F /  20.8 °C 68.8 °F /  20.4 °C 29.87 in /  1011.4 hPa Calm   1.2 mph /  1.9 km/h 98 % 0.00 in /  0 mm
01:21 69.5 °F /  20.8 °C 68.9 °F /  20.5 °C 29.87 in /  1011.4 hPa SE 0.4 mph /  0.6 km/h 3.5 mph /  5.6 km/h 98 % 0.00 in /  0 mm
01:26 69.5 °F /  20.8 °C 68.9 °F /  20.5 °C 29.87 in /  1011.4 hPa Calm   1.2 mph /  1.9 km/h 98 % 0.00 in /  0 mm
01:31 69.5 °F /  20.8 °C 68.9 °F /  20.5 °C 29.87 in /  1011.4 hPa SSE 1.0 mph /  1.6 km/h 1.2 mph /  1.9 km/h 98 % 0.00 in /  0 mm
01:36 69.5 °F /  20.8 °C 68.9 °F /  20.5 °C 29.86 in /  1011.1 hPa SE 0.9 mph /  1.4 km/h 5.0 mph /  8 km/h 98 % 0.00 in /  0 mm
01:42 69.6 °F /  20.9 °C 69.0 °F /  20.6 °C 29.86 in /  1011.1 hPa Calm     98 % 0.00 in /  0 mm
01:47 69.7 °F /  20.9 °C 69.1 °F /  20.6 °C 29.86 in /  1011.1 hPa SSE 0.2 mph /  0.3 km/h 2.3 mph /  3.7 km/h 98 % 0.00 in /  0 mm
01:52 69.7 °F /  20.9 °C 69.1 °F /  20.6 °C 29.86 in /  1011.1 hPa Calm     98 % 0.00 in /  0 mm
01:57 69.8 °F /  21 °C 69.2 °F /  20.7 °C 29.86 in /  1011.1 hPa South 0.1 mph /  0.2 km/h 1.2 mph /  1.9 km/h 98 % 0.00 in /  0 mm
02:02 69.8 °F /  21 °C 69.2 °F /  20.7 °C 29.85 in /  1010.7 hPa Calm   1.2 mph /  1.9 km/h 98 % 0.00 in /  0 mm
02:07 69.9 °F /  21.1 °C 69.3 °F /  20.7 °C 29.85 in /  1010.7 hPa NE 0.2 mph /  0.3 km/h 1.2 mph /  1.9 km/h 98 % 0.00 in /  0 mm
02:12 70.0 °F /  21.1 °C 69.4 °F /  20.8 °C 29.85 in /  1010.7 hPa WSW 0.4 mph /  0.6 km/h 4.6 mph /  7.4 km/h 98 % 0.00 in /  0 mm
02:17 70.0 °F /  21.1 °C 69.4 °F /  20.8 °C 29.85 in /  1010.7 hPa WSW 0.3 mph /  0.5 km/h 2.3 mph /  3.7 km/h 98 % 0.00 in /  0 mm
02:22 70.1 °F /  21.2 °C 69.5 °F /  20.8 °C 29.84 in /  1010.4 hPa SE 0.5 mph /  0.8 km/h 2.3 mph /  3.7 km/h 98 % 0.00 in /  0 mm
02:27 70.1 °F /  21.2 °C 69.5 °F /  20.8 °C 29.84 in /  1010.4 hPa SE 1.0 mph /  1.6 km/h 4.6 mph /  7.4 km/h 98 % 0.00 in /  0 mm
02:32 70.1 °F /  21.2 °C 69.5 °F /  20.8 °C 29.84 in /  1010.4 hPa WSW 0.5 mph /  0.8 km/h 2.3 mph /  3.7 km/h 98 % 0.00 in /  0 mm
02:37 70.2 °F /  21.2 °C 69.6 °F /  20.9 °C 29.84 in /  1010.4 hPa SSE 1.8 mph /  2.9 km/h 3.5 mph /  5.6 km/h 98 % 0.00 in /  0 mm
02:42 70.2 °F /  21.2 °C 69.6 °F /  20.9 °C 29.84 in /  1010.4 hPa SSE 0.2 mph /  0.3 km/h 1.2 mph /  1.9 km/h 98 % 0.00 in /  0 mm
02:44 70.2 °F /  21.2 °C 69.6 °F /  20.9 °C 29.84 in /  1010.4 hPa WSW 0.8 mph /  1.3 km/h 3.5 mph /  5.6 km/h 98 % 0.00 in /  0 mm
02:49 70.2 °F /  21.2 °C 69.6 °F /  20.9 °C 29.85 in /  1010.7 hPa Calm   1.2 mph /  1.9 km/h 98 % 0.00 in /  0 mm
02:54 70.2 °F /  21.2 °C 69.6 °F /  20.9 °C 29.84 in /  1010.4 hPa SE 0.4 mph /  0.6 km/h 3.0 mph /  4.8 km/h 98 % 0.00 in /  0 mm
02:59 70.2 °F /  21.2 °C 69.6 °F /  20.9 °C 29.85 in /  1010.7 hPa SE 0.5 mph /  0.8 km/h 2.0 mph /  3.2 km/h 98 % 0.00 in /  0 mm
03:04 70.2 °F /  21.2 °C 69.6 °F /  20.9 °C 29.85 in /  1010.7 hPa Calm   8.1 mph /  13 km/h 98 % 0.00 in /  0 mm
03:09 70.2 °F /  21.2 °C 69.6 °F /  20.9 °C 29.85 in /  1010.7 hPa South 0.6 mph /  1 km/h 2.0 mph /  3.2 km/h 98 % 0.00 in /  0 mm
03:10 70.2 °F /  21.2 °C 69.6 °F /  20.9 °C 29.85 in /  1010.7 hPa South 0.1 mph /  0.2 km/h 2.3 mph /  3.7 km/h 98 % 0.00 in /  0 mm
03:15 70.2 °F /  21.2 °C 69.6 °F /  20.9 °C 29.85 in /  1010.7 hPa East 0.4 mph /  0.6 km/h 1.2 mph /  1.9 km/h 98 % 0.00 in /  0 mm
03:20 70.1 °F /  21.2 °C 69.5 °F /  20.8 °C 29.85 in /  1010.7 hPa SSE 0.1 mph /  0.2 km/h 1.2 mph /  1.9 km/h 98 % 0.00 in /  0 mm
03:25 70.1 °F /  21.2 °C 69.5 °F /  20.8 °C 29.85 in /  1010.7 hPa SE 0.9 mph /  1.4 km/h 3.5 mph /  5.6 km/h 98 % 0.00 in /  0 mm
03:30 70.0 °F /  21.1 °C 69.4 °F /  20.8 °C 29.85 in /  1010.7 hPa WSW 0.5 mph /  0.8 km/h 3.5 mph /  5.6 km/h 98 % 0.00 in /  0 mm
03:35 70.0 °F /  21.1 °C 69.4 °F /  20.8 °C 29.85 in /  1010.7 hPa South 1.3 mph /  2.1 km/h 4.6 mph /  7.4 km/h 98 % 0.00 in /  0 mm
03:40 69.9 °F /  21.1 °C 69.3 °F /  20.7 °C 29.85 in /  1010.7 hPa NW 0.1 mph /  0.2 km/h 1.2 mph /  1.9 km/h 98 % 0.00 in /  0 mm
03:45 69.9 °F /  21.1 °C 69.3 °F /  20.7 °C 29.85 in /  1010.7 hPa West 0.8 mph /  1.3 km/h 4.6 mph /  7.4 km/h 98 % 0.00 in /  0 mm
03:50 69.9 °F /  21.1 °C 69.3 °F /  20.7 °C 29.85 in /  1010.7 hPa SW 0.2 mph /  0.3 km/h 2.3 mph /  3.7 km/h 98 % 0.00 in /  0 mm
03:55 69.9 °F /  21.1 °C 69.3 °F /  20.7 °C 29.85 in /  1010.7 hPa Calm     98 % 0.00 in /  0 mm
04:00 69.9 °F /  21.1 °C 69.3 °F /  20.7 °C 29.85 in /  1010.7 hPa Calm     98 % 0.00 in /  0 mm
04:05 69.8 °F /  21 °C 69.2 °F /  20.7 °C 29.85 in /  1010.7 hPa SW 0.6 mph /  1 km/h 1.0 mph /  1.6 km/h 98 % 0.00 in /  0 mm
04:10 69.8 °F /  21 °C 69.2 °F /  20.7 °C 29.85 in /  1010.7 hPa Calm     98 % 0.00 in /  0 mm
04:15 69.8 °F /  21 °C 69.2 °F /  20.7 °C 29.85 in /  1010.7 hPa Calm     98 % 0.00 in /  0 mm
04:20 69.8 °F /  21 °C 69.2 °F /  20.7 °C 29.85 in /  1010.7 hPa Calm   1.2 mph /  1.9 km/h 98 % 0.00 in /  0 mm
04:25 69.8 °F /  21 °C 69.2 °F /  20.7 °C 29.85 in /  1010.7 hPa Calm   2.3 mph /  3.7 km/h 98 % 0.00 in /  0 mm
04:31 69.8 °F /  21 °C 69.2 °F /  20.7 °C 29.85 in /  1010.7 hPa Calm   2.0 mph /  3.2 km/h 98 % 0.00 in /  0 mm
04:35 69.7 °F /  20.9 °C 69.1 °F /  20.6 °C 29.85 in /  1010.7 hPa Calm   1.2 mph /  1.9 km/h 98 % 0.00 in /  0 mm
04:41 69.7 °F /  20.9 °C 69.1 °F /  20.6 °C 29.85 in /  1010.7 hPa Calm   1.0 mph /  1.6 km/h 98 % 0.00 in /  0 mm
04:46 69.7 °F /  20.9 °C 69.1 °F /  20.6 °C 29.85 in /  1010.7 hPa Calm   1.0 mph /  1.6 km/h 98 % 0.00 in /  0 mm
04:51 69.7 °F /  20.9 °C 69.1 °F /  20.6 °C 29.85 in /  1010.7 hPa WSW 1.0 mph /  1.6 km/h 4.0 mph /  6.4 km/h 98 % 0.00 in /  0 mm
04:56 69.6 °F /  20.9 °C 69.0 °F /  20.6 °C 29.85 in /  1010.7 hPa Calm   1.0 mph /  1.6 km/h 98 % 0.00 in /  0 mm
05:01 69.6 °F /  20.9 °C 69.0 °F /  20.6 °C 29.84 in /  1010.4 hPa Calm   1.2 mph /  1.9 km/h 98 % 0.00 in /  0 mm
05:06 69.6 °F /  20.9 °C 69.0 °F /  20.6 °C 29.85 in /  1010.7 hPa Calm     98 % 0.00 in /  0 mm
05:11 69.6 °F /  20.9 °C 69.0 °F /  20.6 °C 29.85 in /  1010.7 hPa WSW 0.1 mph /  0.2 km/h 1.2 mph /  1.9 km/h 98 % 0.00 in /  0 mm
05:16 69.7 °F /  20.9 °C 69.1 °F /  20.6 °C 29.85 in /  1010.7 hPa Calm     98 % 0.00 in /  0 mm
05:21 69.7 °F /  20.9 °C 69.1 °F /  20.6 °C 29.85 in /  1010.7 hPa Calm   1.2 mph /  1.9 km/h 98 % 0.00 in /  0 mm
05:26 69.7 °F /  20.9 °C 69.1 °F /  20.6 °C 29.85 in /  1010.7 hPa Calm     98 % 0.00 in /  0 mm
05:31 69.7 °F /  20.9 °C 69.1 °F /  20.6 °C 29.85 in /  1010.7 hPa Calm   1.2 mph /  1.9 km/h 98 % 0.00 in /  0 mm
05:36 69.7 °F /  20.9 °C 69.1 °F /  20.6 °C 29.85 in /  1010.7 hPa Calm   1.2 mph /  1.9 km/h 98 % 0.00 in /  0 mm
05:41 69.7 °F /  20.9 °C 69.1 °F /  20.6 °C 29.85 in /  1010.7 hPa Calm   3.5 mph /  5.6 km/h 98 % 0.00 in /  0 mm
05:46 69.7 °F /  20.9 °C 69.1 °F /  20.6 °C 29.85 in /  1010.7 hPa Calm   1.2 mph /  1.9 km/h 98 % 0.00 in /  0 mm
05:51 69.7 °F /  20.9 °C 69.1 °F /  20.6 °C 29.85 in /  1010.7 hPa West 1.6 mph /  2.6 km/h 4.0 mph /  6.4 km/h 98 % 0.00 in /  0 mm
05:56 69.8 °F /  21 °C 69.2 °F /  20.7 °C 29.85 in /  1010.7 hPa Calm     98 % 0.00 in /  0 mm
06:02 69.8 °F /  21 °C 69.2 °F /  20.7 °C 29.85 in /  1010.7 hPa WSW 0.1 mph /  0.2 km/h 1.2 mph /  1.9 km/h 98 % 0.00 in /  0 mm
06:07 69.9 °F /  21.1 °C 69.3 °F /  20.7 °C 29.85 in /  1010.7 hPa WSW 0.2 mph /  0.3 km/h 2.3 mph /  3.7 km/h 98 % 0.00 in /  0 mm
06:12 69.9 °F /  21.1 °C 69.3 °F /  20.7 °C 29.85 in /  1010.7 hPa Calm     98 % 0.00 in /  0 mm
06:17 70.0 °F /  21.1 °C 69.4 °F /  20.8 °C 29.85 in /  1010.7 hPa Calm     98 % 0.00 in /  0 mm
06:22 70.0 °F /  21.1 °C 69.4 °F /  20.8 °C 29.85 in /  1010.7 hPa Calm     98 % 0.00 in /  0 mm
06:27 70.1 °F /  21.2 °C 69.5 °F /  20.8 °C 29.85 in /  1010.7 hPa SW 0.2 mph /  0.3 km/h 2.3 mph /  3.7 km/h 98 % 0.00 in /  0 mm
06:32 70.2 °F /  21.2 °C 69.6 °F /  20.9 °C 29.86 in /  1011.1 hPa Calm   1.2 mph /  1.9 km/h 98 % 0.00 in /  0 mm
06:37 70.3 °F /  21.3 °C 69.7 °F /  20.9 °C 29.86 in /  1011.1 hPa Calm   1.2 mph /  1.9 km/h 98 % 0.00 in /  0 mm
06:42 70.4 °F /  21.3 °C 69.8 °F /  21 °C 29.86 in /  1011.1 hPa WSW 0.3 mph /  0.5 km/h 3.5 mph /  5.6 km/h 98 % 0.00 in /  0 mm
06:47 70.5 °F /  21.4 °C 69.9 °F /  21.1 °C 29.85 in /  1010.7 hPa SSE 0.4 mph /  0.6 km/h 2.0 mph /  3.2 km/h 98 % 0.00 in /  0 mm
06:52 70.6 °F /  21.4 °C 70.0 °F /  21.1 °C 29.86 in /  1011.1 hPa Calm     98 % 0.00 in /  0 mm
06:57 70.7 °F /  21.5 °C 70.1 °F /  21.2 °C 29.86 in /  1011.1 hPa West 0.6 mph /  1 km/h 1.2 mph /  1.9 km/h 98 % 0.00 in /  0 mm
07:02 70.8 °F /  21.6 °C 70.2 °F /  21.2 °C 29.86 in /  1011.1 hPa West 0.4 mph /  0.6 km/h 2.3 mph /  3.7 km/h 98 % 0.00 in /  0 mm
07:07 70.8 °F /  21.6 °C 70.2 °F /  21.2 °C 29.86 in /  1011.1 hPa Calm     98 % 0.00 in /  0 mm
07:12 70.9 °F /  21.6 °C 70.3 °F /  21.3 °C 29.86 in /  1011.1 hPa Calm   1.2 mph /  1.9 km/h 98 % 0.00 in /  0 mm
07:17 70.9 °F /  21.6 °C 70.3 °F /  21.3 °C 29.86 in /  1011.1 hPa Calm   1.2 mph /  1.9 km/h 98 % 0.00 in /  0 mm
07:22 71.0 °F /  21.7 °C 70.4 °F /  21.3 °C 29.86 in /  1011.1 hPa Calm     98 % 0.00 in /  0 mm
07:27 71.0 °F /  21.7 °C 70.4 °F /  21.3 °C 29.86 in /  1011.1 hPa SE 0.2 mph /  0.3 km/h 3.5 mph /  5.6 km/h 98 % 0.00 in /  0 mm
07:32 71.1 °F /  21.7 °C 70.5 °F /  21.4 °C 29.86 in /  1011.1 hPa SE 0.2 mph /  0.3 km/h 2.3 mph /  3.7 km/h 98 % 0.00 in /  0 mm
07:37 71.2 °F /  21.8 °C 70.6 °F /  21.4 °C 29.86 in /  1011.1 hPa Calm     98 % 0.00 in /  0 mm
07:42 71.3 °F /  21.8 °C 70.7 °F /  21.5 °C 29.86 in /  1011.1 hPa Calm     98 % 0.00 in /  0 mm
07:47 71.5 °F /  21.9 °C 70.9 °F /  21.6 °C 29.87 in /  1011.4 hPa Calm   1.2 mph /  1.9 km/h 98 % 0.00 in /  0 mm
07:52 71.7 °F /  22.1 °C 71.1 °F /  21.7 °C 29.86 in /  1011.1 hPa Calm   2.3 mph /  3.7 km/h 98 % 0.00 in /  0 mm
07:57 71.8 °F /  22.1 °C 71.5 °F /  21.9 °C 29.86 in /  1011.1 hPa Calm   1.2 mph /  1.9 km/h 99 % 0.00 in /  0 mm
08:02 71.9 °F /  22.2 °C 71.3 °F /  21.8 °C 29.87 in /  1011.4 hPa SSE 0.4 mph /  0.6 km/h 1.2 mph /  1.9 km/h 98 % 0.00 in /  0 mm
08:07 72.1 °F /  22.3 °C 71.5 °F /  21.9 °C 29.86 in /  1011.1 hPa SSE 1.5 mph /  2.4 km/h 4.6 mph /  7.4 km/h 98 % 0.00 in /  0 mm
08:12 72.2 °F /  22.3 °C 71.6 °F /  22 °C 29.86 in /  1011.1 hPa SE 0.5 mph /  0.8 km/h 3.5 mph /  5.6 km/h 98 % 0.00 in /  0 mm
08:17 72.3 °F /  22.4 °C 71.7 °F /  22.1 °C 29.87 in /  1011.4 hPa SSE 0.2 mph /  0.3 km/h 2.0 mph /  3.2 km/h 98 % 0.00 in /  0 mm
08:23 72.5 °F /  22.5 °C 71.9 °F /  22.2 °C 29.87 in /  1011.4 hPa SSE 0.9 mph /  1.4 km/h 3.5 mph /  5.6 km/h 98 % 0.00 in /  0 mm
08:28 72.8 °F /  22.7 °C 72.2 °F /  22.3 °C 29.86 in /  1011.1 hPa SE 0.2 mph /  0.3 km/h 4.6 mph /  7.4 km/h 98 % 0.00 in /  0 mm
08:33 72.9 °F /  22.7 °C 72.3 °F /  22.4 °C 29.87 in /  1011.4 hPa SE 1.3 mph /  2.1 km/h 4.6 mph /  7.4 km/h 98 % 0.00 in /  0 mm
08:38 73.1 °F /  22.8 °C 72.5 °F /  22.5 °C 29.87 in /  1011.4 hPa SE 1.1 mph /  1.8 km/h 3.5 mph /  5.6 km/h 98 % 0.00 in /  0 mm
08:39 73.2 °F /  22.9 °C 72.6 °F /  22.6 °C 29.87 in /  1011.4 hPa SE 0.5 mph /  0.8 km/h 2.3 mph /  3.7 km/h 98 % 0.00 in /  0 mm
08:44 73.4 °F /  23 °C 72.8 °F /  22.7 °C 29.87 in /  1011.4 hPa SSE 0.7 mph /  1.1 km/h 3.5 mph /  5.6 km/h 98 % 0.00 in /  0 mm
08:49 73.6 °F /  23.1 °C 73.0 °F /  22.8 °C 29.86 in /  1011.1 hPa SSE 1.0 mph /  1.6 km/h 3.5 mph /  5.6 km/h 98 % 0.00 in /  0 mm
08:54 73.9 °F /  23.3 °C 73.0 °F /  22.8 °C 29.86 in /  1011.1 hPa SE 0.5 mph /  0.8 km/h 3.5 mph /  5.6 km/h 97 % 0.00 in /  0 mm
08:59 74.1 °F /  23.4 °C 73.2 °F /  22.9 °C 29.86 in /  1011.1 hPa SSE 0.8 mph /  1.3 km/h 2.3 mph /  3.7 km/h 97 % 0.00 in /  0 mm
09:04 74.4 °F /  23.6 °C 73.5 °F /  23.1 °C 29.86 in /  1011.1 hPa South 1.5 mph /  2.4 km/h 6.0 mph /  9.7 km/h 97 % 0.00 in /  0 mm
09:09 74.5 °F /  23.6 °C 73.3 °F /  22.9 °C 29.86 in /  1011.1 hPa SSE 1.3 mph /  2.1 km/h 3.5 mph /  5.6 km/h 96 % 0.00 in /  0 mm
09:14 74.7 °F /  23.7 °C 73.5 °F /  23.1 °C 29.86 in /  1011.1 hPa South 0.7 mph /  1.1 km/h 4.6 mph /  7.4 km/h 96 % 0.00 in /  0 mm
09:19 74.9 °F /  23.8 °C 73.7 °F /  23.2 °C 29.87 in /  1011.4 hPa SSE 1.1 mph /  1.8 km/h 3.5 mph /  5.6 km/h 96 % 0.00 in /  0 mm
09:24 75.2 °F /  24 °C 74.0 °F /  23.3 °C 29.87 in /  1011.4 hPa SSW 0.4 mph /  0.6 km/h 4.6 mph /  7.4 km/h 96 % 0.00 in /  0 mm
09:26 75.3 °F /  24.1 °C 74.1 °F /  23.4 °C 29.87 in /  1011.4 hPa SE 1.3 mph /  2.1 km/h 7.0 mph /  11.3 km/h 96 % 0.00 in /  0 mm
09:31 75.6 °F /  24.2 °C 74.1 °F /  23.4 °C 29.87 in /  1011.4 hPa SSW 1.6 mph /  2.6 km/h 3.5 mph /  5.6 km/h 95 % 0.00 in /  0 mm
09:36 75.9 °F /  24.4 °C 74.4 °F /  23.6 °C 29.87 in /  1011.4 hPa SSW 0.4 mph /  0.6 km/h 2.3 mph /  3.7 km/h 95 % 0.00 in /  0 mm
09:41 76.2 °F /  24.6 °C 74.3 °F /  23.5 °C 29.86 in /  1011.1 hPa West 1.6 mph /  2.6 km/h 6.0 mph /  9.7 km/h 94 % 0.00 in /  0 mm
09:46 76.6 °F /  24.8 °C 74.7 °F /  23.7 °C 29.87 in /  1011.4 hPa South 0.7 mph /  1.1 km/h 3.5 mph /  5.6 km/h 94 % 0.00 in /  0 mm
09:51 77.0 °F /  25 °C 74.8 °F /  23.8 °C 29.86 in /  1011.1 hPa SW 1.3 mph /  2.1 km/h 5.8 mph /  9.3 km/h 93 % 0.00 in /  0 mm
09:56 77.5 °F /  25.3 °C 75.6 °F /  24.2 °C 29.86 in /  1011.1 hPa SW 2.5 mph /  4 km/h 4.0 mph /  6.4 km/h 94 % 0.00 in /  0 mm
10:01 77.9 °F /  25.5 °C 75.4 °F /  24.1 °C 29.87 in /  1011.4 hPa SSW 1.7 mph /  2.7 km/h 6.0 mph /  9.7 km/h 92 % 0.00 in /  0 mm
10:06 78.4 °F /  25.8 °C 75.6 °F /  24.2 °C 29.87 in /  1011.4 hPa WSW 1.0 mph /  1.6 km/h 5.0 mph /  8 km/h 91 % 0.00 in /  0 mm
10:11 78.8 °F /  26 °C 75.3 °F /  24.1 °C 29.86 in /  1011.1 hPa SSW 1.8 mph /  2.9 km/h 3.5 mph /  5.6 km/h 89 % 0.00 in /  0 mm
10:16 79.0 °F /  26.1 °C 75.1 °F /  23.9 °C 29.86 in /  1011.1 hPa SSE 1.2 mph /  1.9 km/h 5.0 mph /  8 km/h 88 % 0.00 in /  0 mm
10:21 79.4 °F /  26.3 °C 75.9 °F /  24.4 °C 29.86 in /  1011.1 hPa SSW 1.2 mph /  1.9 km/h 3.5 mph /  5.6 km/h 89 % 0.00 in /  0 mm
10:26 79.8 °F /  26.6 °C 75.9 °F /  24.4 °C 29.86 in /  1011.1 hPa SSW 2.1 mph /  3.4 km/h 3.5 mph /  5.6 km/h 88 % 0.00 in /  0 mm
10:31 80.1 °F /  26.7 °C 75.9 °F /  24.4 °C 29.86 in /  1011.1 hPa SSW 1.1 mph /  1.8 km/h 3.5 mph /  5.6 km/h 87 % 0.00 in /  0 mm
10:36 80.2 °F /  26.8 °C 75.3 °F /  24.1 °C 29.86 in /  1011.1 hPa SSE 3.1 mph /  5 km/h 3.5 mph /  5.6 km/h 85 % 0.00 in /  0 mm
10:37 80.2 °F /  26.8 °C 75.3 °F /  24.1 °C 29.86 in /  1011.1 hPa SE 2.9 mph /  4.7 km/h 4.0 mph /  6.4 km/h 85 % 0.00 in /  0 mm
10:42 79.9 °F /  26.6 °C 75.3 °F /  24.1 °C 29.86 in /  1011.1 hPa SSE 2.5 mph /  4 km/h 3.5 mph /  5.6 km/h 86 % 0.00 in /  0 mm
10:47 79.8 °F /  26.6 °C 75.2 °F /  24 °C 29.85 in /  1010.7 hPa SE 0.6 mph /  1 km/h 3.5 mph /  5.6 km/h 86 % 0.00 in /  0 mm
10:52 79.7 °F /  26.5 °C 75.1 °F /  23.9 °C 29.85 in /  1010.7 hPa SSE 0.3 mph /  0.5 km/h 3.5 mph /  5.6 km/h 86 % 0.00 in /  0 mm
10:57 79.8 °F /  26.6 °C 75.6 °F /  24.2 °C 29.86 in /  1011.1 hPa SSE 1.1 mph /  1.8 km/h 4.6 mph /  7.4 km/h 87 % 0.00 in /  0 mm
11:02 79.8 °F /  26.6 °C 75.2 °F /  24 °C 29.86 in /  1011.1 hPa SW 1.7 mph /  2.7 km/h 6.9 mph /  11.1 km/h 86 % 0.00 in /  0 mm
11:07 79.9 °F /  26.6 °C 75.7 °F /  24.3 °C 29.86 in /  1011.1 hPa SW 2.9 mph /  4.7 km/h 4.6 mph /  7.4 km/h 87 % 0.00 in /  0 mm
11:12 80.1 °F /  26.7 °C 75.2 °F /  24 °C 29.85 in /  1010.7 hPa SSE 3.7 mph /  6 km/h 7.0 mph /  11.3 km/h 85 % 0.00 in /  0 mm
11:17 79.7 °F /  26.5 °C 74.8 °F /  23.8 °C 29.85 in /  1010.7 hPa SE 4.2 mph /  6.8 km/h 8.1 mph /  13 km/h 85 % 0.00 in /  0 mm
11:22 79.5 °F /  26.4 °C 74.6 °F /  23.7 °C 29.85 in /  1010.7 hPa SSE 5.7 mph /  9.2 km/h 12.7 mph /  20.4 km/h 85 % 0.00 in /  0 mm
11:27 79.9 °F /  26.6 °C 75.7 °F /  24.3 °C 29.85 in /  1010.7 hPa South 1.2 mph /  1.9 km/h 3.5 mph /  5.6 km/h 87 % 0.00 in /  0 mm
11:32 80.3 °F /  26.8 °C 76.1 °F /  24.5 °C 29.85 in /  1010.7 hPa SSE 1.0 mph /  1.6 km/h 3.5 mph /  5.6 km/h 87 % 0.00 in /  0 mm
11:37 80.7 °F /  27.1 °C 75.8 °F /  24.3 °C 29.85 in /  1010.7 hPa SE 3.1 mph /  5 km/h 6.9 mph /  11.1 km/h 85 % 0.00 in /  0 mm
11:42 81.1 °F /  27.3 °C 76.2 °F /  24.6 °C 29.85 in /  1010.7 hPa SSE 3.0 mph /  4.8 km/h 6.9 mph /  11.1 km/h 85 % 0.00 in /  0 mm
11:47 81.2 °F /  27.3 °C 75.5 °F /  24.2 °C 29.85 in /  1010.7 hPa South 3.2 mph /  5.1 km/h 9.0 mph /  14.5 km/h 83 % 0.00 in /  0 mm
11:52 81.5 °F /  27.5 °C 76.2 °F /  24.6 °C 29.84 in /  1010.4 hPa SSW 1.8 mph /  2.9 km/h 5.8 mph /  9.3 km/h 84 % 0.00 in /  0 mm
11:57 82.1 °F /  27.8 °C 77.5 °F /  25.3 °C 29.84 in /  1010.4 hPa SE 0.2 mph /  0.3 km/h 4.0 mph /  6.4 km/h 86 % 0.00 in /  0 mm
12:02 82.7 °F /  28.2 °C 76.3 °F /  24.6 °C 29.84 in /  1010.4 hPa SSE 2.5 mph /  4 km/h 5.8 mph /  9.3 km/h 81 % 0.00 in /  0 mm
12:07 82.8 °F /  28.2 °C 76.7 °F /  24.8 °C 29.84 in /  1010.4 hPa South 1.8 mph /  2.9 km/h 4.6 mph /  7.4 km/h 82 % 0.00 in /  0 mm
12:12 83.3 °F /  28.5 °C 76.1 °F /  24.5 °C 29.83 in /  1010 hPa South 1.0 mph /  1.6 km/h 2.3 mph /  3.7 km/h 79 % 0.00 in /  0 mm
12:17 83.6 °F /  28.7 °C 76.4 °F /  24.7 °C 29.83 in /  1010 hPa SE 3.9 mph /  6.3 km/h 11.0 mph /  17.7 km/h 79 % 0.00 in /  0 mm
12:22 83.7 °F /  28.7 °C 76.9 °F /  24.9 °C 29.83 in /  1010 hPa SW 2.5 mph /  4 km/h 6.0 mph /  9.7 km/h 80 % 0.00 in /  0 mm
12:27 84.3 °F /  29.1 °C 77.1 °F /  25.1 °C 29.83 in /  1010 hPa SE 1.2 mph /  1.9 km/h 2.3 mph /  3.7 km/h 79 % 0.00 in /  0 mm
12:33 84.7 °F /  29.3 °C 77.5 °F /  25.3 °C 29.82 in /  1009.7 hPa SE 1.2 mph /  1.9 km/h 4.6 mph /  7.4 km/h 79 % 0.00 in /  0 mm
12:38 84.6 °F /  29.2 °C 76.2 °F /  24.6 °C 29.82 in /  1009.7 hPa SSE 1.8 mph /  2.9 km/h 11.5 mph /  18.5 km/h 76 % 0.00 in /  0 mm
12:43 84.3 °F /  29.1 °C 76.3 °F /  24.6 °C 29.82 in /  1009.7 hPa SE 1.8 mph /  2.9 km/h 3.5 mph /  5.6 km/h 77 % 0.00 in /  0 mm
12:48 84.8 °F /  29.3 °C 78.3 °F /  25.7 °C 29.82 in /  1009.7 hPa South 3.8 mph /  6.1 km/h 8.1 mph /  13 km/h 81 % 0.00 in /  0 mm
12:53 85.0 °F /  29.4 °C 76.2 °F /  24.6 °C 29.82 in /  1009.7 hPa SSW 2.7 mph /  4.3 km/h 5.8 mph /  9.3 km/h 75 % 0.00 in /  0 mm
12:58 85.3 °F /  29.6 °C 76.9 °F /  24.9 °C 29.82 in /  1009.7 hPa South 2.4 mph /  3.9 km/h 8.0 mph /  12.9 km/h 76 % 0.00 in /  0 mm
13:03 85.2 °F /  29.6 °C 76.4 °F /  24.7 °C 29.82 in /  1009.7 hPa South 0.7 mph /  1.1 km/h 3.5 mph /  5.6 km/h 75 % 0.00 in /  0 mm
13:08 85.2 °F /  29.6 °C 76.0 °F /  24.4 °C 29.81 in /  1009.4 hPa SSE 3.8 mph /  6.1 km/h 11.5 mph /  18.5 km/h 74 % 0.00 in /  0 mm
13:13 85.0 °F /  29.4 °C 76.2 °F /  24.6 °C 29.81 in /  1009.4 hPa SSE 3.8 mph /  6.1 km/h 6.9 mph /  11.1 km/h 75 % 0.00 in /  0 mm
13:18 85.2 °F /  29.6 °C 76.8 °F /  24.9 °C 29.81 in /  1009.4 hPa SSW 2.9 mph /  4.7 km/h 6.9 mph /  11.1 km/h 76 % 0.00 in /  0 mm
13:23 85.3 °F /  29.6 °C 76.1 °F /  24.5 °C 29.81 in /  1009.4 hPa SSW 4.1 mph /  6.6 km/h 11.5 mph /  18.5 km/h 74 % 0.00 in /  0 mm
13:29 85.0 °F /  29.4 °C 75.4 °F /  24.1 °C 29.81 in /  1009.4 hPa SSE 5.3 mph /  8.5 km/h 13.8 mph /  22.2 km/h 73 % 0.00 in /  0 mm
13:34 84.4 °F /  29.1 °C 76.4 °F /  24.7 °C 29.81 in /  1009.4 hPa SE 3.6 mph /  5.8 km/h 8.1 mph /  13 km/h 77 % 0.00 in /  0 mm
13:39 84.2 °F /  29 °C 75.4 °F /  24.1 °C 29.81 in /  1009.4 hPa South 2.3 mph /  3.7 km/h 4.6 mph /  7.4 km/h 75 % 0.00 in /  0 mm
13:44 84.0 °F /  28.9 °C 75.2 °F /  24 °C 29.81 in /  1009.4 hPa SSE 1.1 mph /  1.8 km/h 11.5 mph /  18.5 km/h 75 % 0.00 in /  0 mm
13:49 84.2 °F /  29 °C 75.4 °F /  24.1 °C 29.81 in /  1009.4 hPa SE 3.4 mph /  5.5 km/h 8.0 mph /  12.9 km/h 75 % 0.00 in /  0 mm
13:54 83.9 °F /  28.8 °C 75.5 °F /  24.2 °C 29.81 in /  1009.4 hPa South 2.8 mph /  4.5 km/h 6.9 mph /  11.1 km/h 76 % 0.00 in /  0 mm
13:59 84.1 °F /  28.9 °C 75.3 °F /  24.1 °C 29.80 in /  1009 hPa SE 4.2 mph /  6.8 km/h 10.4 mph /  16.7 km/h 75 % 0.00 in /  0 mm
14:04 84.0 °F /  28.9 °C 74.8 °F /  23.8 °C 29.80 in /  1009 hPa SSE 1.8 mph /  2.9 km/h 9.2 mph /  14.8 km/h 74 % 0.00 in /  0 mm
14:09 84.0 °F /  28.9 °C 75.2 °F /  24 °C 29.81 in /  1009.4 hPa SE 3.6 mph /  5.8 km/h 10.4 mph /  16.7 km/h 75 % 0.00 in /  0 mm
14:14 83.7 °F /  28.7 °C 74.9 °F /  23.8 °C 29.81 in /  1009.4 hPa SE 1.0 mph /  1.6 km/h 5.8 mph /  9.3 km/h 75 % 0.00 in /  0 mm
14:19 83.6 °F /  28.7 °C 75.6 °F /  24.2 °C 29.80 in /  1009 hPa SW 3.9 mph /  6.3 km/h 6.9 mph /  11.1 km/h 77 % 0.00 in /  0 mm
14:24 83.8 °F /  28.8 °C 75.0 °F /  23.9 °C 29.80 in /  1009 hPa SE 7.1 mph /  11.4 km/h 13.8 mph /  22.2 km/h 75 % 0.00 in /  0 mm
14:29 83.7 °F /  28.7 °C 75.3 °F /  24.1 °C 29.80 in /  1009 hPa SE 3.0 mph /  4.8 km/h 4.6 mph /  7.4 km/h 76 % 0.00 in /  0 mm
14:34 83.8 °F /  28.8 °C 75.4 °F /  24.1 °C 29.80 in /  1009 hPa SSW 3.7 mph /  6 km/h 6.9 mph /  11.1 km/h 76 % 0.00 in /  0 mm
14:39 84.3 °F /  29.1 °C 76.3 °F /  24.6 °C 29.80 in /  1009 hPa South 2.4 mph /  3.9 km/h 5.8 mph /  9.3 km/h 77 % 0.00 in /  0 mm
14:44 84.7 °F /  29.3 °C 76.3 °F /  24.6 °C 29.80 in /  1009 hPa SSE 4.6 mph /  7.4 km/h 5.8 mph /  9.3 km/h 76 % 0.00 in /  0 mm
14:49 84.8 °F /  29.3 °C 75.2 °F /  24 °C 29.80 in /  1009 hPa South 2.3 mph /  3.7 km/h 8.1 mph /  13 km/h 73 % 0.00 in /  0 mm
14:54 84.6 °F /  29.2 °C 75.4 °F /  24.1 °C 29.80 in /  1009 hPa SW 1.9 mph /  3.1 km/h 5.8 mph /  9.3 km/h 74 % 0.00 in /  0 mm
14:59 84.4 °F /  29.1 °C 75.6 °F /  24.2 °C 29.80 in /  1009 hPa SE 0.2 mph /  0.3 km/h 4.6 mph /  7.4 km/h 75 % 0.00 in /  0 mm
15:04 84.4 °F /  29.1 °C 75.6 °F /  24.2 °C 29.79 in /  1008.7 hPa SSW 2.0 mph /  3.2 km/h 8.1 mph /  13 km/h 75 % 0.00 in /  0 mm
15:09 84.3 °F /  29.1 °C 75.9 °F /  24.4 °C 29.80 in /  1009 hPa SSE 3.9 mph /  6.3 km/h 9.0 mph /  14.5 km/h 76 % 0.00 in /  0 mm
15:14 84.5 °F /  29.2 °C 76.1 °F /  24.5 °C 29.80 in /  1009 hPa SSW 0.4 mph /  0.6 km/h 4.0 mph /  6.4 km/h 76 % 0.00 in /  0 mm
15:20 84.7 °F /  29.3 °C 75.5 °F /  24.2 °C 29.79 in /  1008.7 hPa SW 3.5 mph /  5.6 km/h 7.0 mph /  11.3 km/h 74 % 0.00 in /  0 mm
15:25 84.9 °F /  29.4 °C 75.7 °F /  24.3 °C 29.79 in /  1008.7 hPa South 2.9 mph /  4.7 km/h 6.9 mph /  11.1 km/h 74 % 0.00 in /  0 mm
15:30 84.7 °F /  29.3 °C 74.7 °F /  23.7 °C 29.79 in /  1008.7 hPa SSE 3.7 mph /  6 km/h 8.1 mph /  13 km/h 72 % 0.00 in /  0 mm
15:35 84.7 °F /  29.3 °C 75.9 °F /  24.4 °C 29.78 in /  1008.4 hPa South 4.0 mph /  6.4 km/h 6.9 mph /  11.1 km/h 75 % 0.00 in /  0 mm
15:40 84.9 °F /  29.4 °C 76.1 °F /  24.5 °C 29.79 in /  1008.7 hPa South 2.7 mph /  4.3 km/h 5.8 mph /  9.3 km/h 75 % 0.00 in /  0 mm
15:45 85.0 °F /  29.4 °C 75.0 °F /  23.9 °C 29.79 in /  1008.7 hPa SSE 4.2 mph /  6.8 km/h 8.1 mph /  13 km/h 72 % 0.00 in /  0 mm
15:50 84.7 °F /  29.3 °C 75.9 °F /  24.4 °C 29.79 in /  1008.7 hPa SSW 1.0 mph /  1.6 km/h 3.5 mph /  5.6 km/h 75 % 0.00 in /  0 mm
15:55 84.8 °F /  29.3 °C 76.0 °F /  24.4 °C 29.79 in /  1008.7 hPa SW 1.8 mph /  2.9 km/h 4.0 mph /  6.4 km/h 75 % 0.00 in /  0 mm
16:00 84.7 °F /  29.3 °C 75.5 °F /  24.2 °C 29.79 in /  1008.7 hPa SW 3.6 mph /  5.8 km/h 6.9 mph /  11.1 km/h 74 % 0.00 in /  0 mm
16:05 84.6 °F /  29.2 °C 75.0 °F /  23.9 °C 29.78 in /  1008.4 hPa ESE 2.2 mph /  3.5 km/h 6.9 mph /  11.1 km/h 73 % 0.00 in /  0 mm
16:10 84.2 °F /  29 °C 74.6 °F /  23.7 °C 29.78 in /  1008.4 hPa SSE 5.0 mph /  8 km/h 11.5 mph /  18.5 km/h 73 % 0.00 in /  0 mm
16:15 83.7 °F /  28.7 °C 74.9 °F /  23.8 °C 29.78 in /  1008.4 hPa South 3.0 mph /  4.8 km/h 9.0 mph /  14.5 km/h 75 % 0.00 in /  0 mm
16:20 83.5 °F /  28.6 °C 74.7 °F /  23.7 °C 29.78 in /  1008.4 hPa SSW 3.2 mph /  5.1 km/h 5.8 mph /  9.3 km/h 75 % 0.00 in /  0 mm
16:25 83.4 °F /  28.6 °C 75.0 °F /  23.9 °C 29.78 in /  1008.4 hPa SSW 2.3 mph /  3.7 km/h 5.8 mph /  9.3 km/h 76 % 0.00 in /  0 mm
16:30 83.6 °F /  28.7 °C 75.2 °F /  24 °C 29.77 in /  1008 hPa WSW 2.4 mph /  3.9 km/h 5.8 mph /  9.3 km/h 76 % 0.00 in /  0 mm
16:35 83.7 °F /  28.7 °C 74.9 °F /  23.8 °C 29.77 in /  1008 hPa SSW 1.7 mph /  2.7 km/h 5.0 mph /  8 km/h 75 % 0.00 in /  0 mm
16:40 83.8 °F /  28.8 °C 75.0 °F /  23.9 °C 29.77 in /  1008 hPa South 1.9 mph /  3.1 km/h 5.0 mph /  8 km/h 75 % 0.00 in /  0 mm
16:45 83.9 °F /  28.8 °C 75.1 °F /  23.9 °C 29.77 in /  1008 hPa SSW 1.3 mph /  2.1 km/h 3.5 mph /  5.6 km/h 75 % 0.00 in /  0 mm
16:50 84.0 °F /  28.9 °C 74.8 °F /  23.8 °C 29.77 in /  1008 hPa South 5.2 mph /  8.4 km/h 10.4 mph /  16.7 km/h 74 % 0.00 in /  0 mm
16:55 83.9 °F /  28.8 °C 74.3 °F /  23.5 °C 29.77 in /  1008 hPa South 3.1 mph /  5 km/h 9.2 mph /  14.8 km/h 73 % 0.00 in /  0 mm
17:00 83.6 °F /  28.7 °C 74.4 °F /  23.6 °C 29.77 in /  1008 hPa SSW 2.6 mph /  4.2 km/h 10.4 mph /  16.7 km/h 74 % 0.00 in /  0 mm
17:05 83.0 °F /  28.3 °C 73.9 °F /  23.3 °C 29.76 in /  1007.7 hPa South 3.2 mph /  5.1 km/h 6.9 mph /  11.1 km/h 74 % 0.00 in /  0 mm
17:10 82.5 °F /  28.1 °C 73.8 °F /  23.2 °C 29.76 in /  1007.7 hPa SSW 5.8 mph /  9.3 km/h 11.5 mph /  18.5 km/h 75 % 0.00 in /  0 mm
17:15 82.1 °F /  27.8 °C 73.8 °F /  23.2 °C 29.76 in /  1007.7 hPa SSW 5.2 mph /  8.4 km/h 7.0 mph /  11.3 km/h 76 % 0.00 in /  0 mm
17:20 81.7 °F /  27.6 °C 73.4 °F /  23 °C 29.75 in /  1007.3 hPa SSW 4.2 mph /  6.8 km/h 9.2 mph /  14.8 km/h 76 % 0.00 in /  0 mm
17:25 81.4 °F /  27.4 °C 73.5 °F /  23.1 °C 29.76 in /  1007.7 hPa SE 2.8 mph /  4.5 km/h 8.1 mph /  13 km/h 77 % 0.00 in /  0 mm
17:30 81.1 °F /  27.3 °C 73.2 °F /  22.9 °C 29.76 in /  1007.7 hPa South 4.3 mph /  6.9 km/h 10.0 mph /  16.1 km/h 77 % 0.00 in /  0 mm
17:35 80.9 °F /  27.2 °C 73.4 °F /  23 °C 29.75 in /  1007.3 hPa South 3.9 mph /  6.3 km/h 11.5 mph /  18.5 km/h 78 % 0.00 in /  0 mm
17:41 80.7 °F /  27.1 °C 73.6 °F /  23.1 °C 29.75 in /  1007.3 hPa South 2.0 mph /  3.2 km/h 14.0 mph /  22.5 km/h 79 % 0.00 in /  0 mm
17:46 80.6 °F /  27 °C 73.1 °F /  22.8 °C 29.75 in /  1007.3 hPa South 3.0 mph /  4.8 km/h 15.0 mph /  24.1 km/h 78 % 0.00 in /  0 mm
17:56 80.2 °F /  26.8 °C 72.7 °F /  22.6 °C 29.75 in /  1007.3 hPa SSW 6.0 mph /  9.7 km/h 12.0 mph /  19.3 km/h 78 % 0.00 in /  0 mm
18:01 80.0 °F /  26.7 °C 72.9 °F /  22.7 °C 29.75 in /  1007.3 hPa SSE 1.5 mph /  2.4 km/h 5.8 mph /  9.3 km/h 79 % 0.00 in /  0 mm
18:06 79.9 °F /  26.6 °C 72.4 °F /  22.4 °C 29.75 in /  1007.3 hPa SSE 2.3 mph /  3.7 km/h 9.2 mph /  14.8 km/h 78 % 0.00 in /  0 mm
18:11 79.8 °F /  26.6 °C 72.3 °F /  22.4 °C 29.75 in /  1007.3 hPa South 0.6 mph /  1 km/h 11.5 mph /  18.5 km/h 78 % 0.00 in /  0 mm
18:16 79.8 °F /  26.6 °C 72.3 °F /  22.4 °C 29.75 in /  1007.3 hPa SSE 3.5 mph /  5.6 km/h 10.4 mph /  16.7 km/h 78 % 0.00 in /  0 mm
18:21 79.7 °F /  26.5 °C 72.2 °F /  22.3 °C 29.75 in /  1007.3 hPa South 2.0 mph /  3.2 km/h 6.9 mph /  11.1 km/h 78 % 0.00 in /  0 mm
18:26 79.7 °F /  26.5 °C 72.2 °F /  22.3 °C 29.75 in /  1007.3 hPa SE 4.4 mph /  7.1 km/h 11.5 mph /  18.5 km/h 78 % 0.00 in /  0 mm
18:31 79.6 °F /  26.4 °C 72.5 °F /  22.5 °C 29.75 in /  1007.3 hPa South 6.4 mph /  10.3 km/h 10.4 mph /  16.7 km/h 79 % 0.00 in /  0 mm
18:36 79.5 °F /  26.4 °C 72.4 °F /  22.4 °C 29.75 in /  1007.3 hPa SSW 6.1 mph /  9.8 km/h 11.5 mph /  18.5 km/h 79 % 0.00 in /  0 mm
18:46 79.2 °F /  26.2 °C 72.5 °F /  22.5 °C 29.76 in /  1007.7 hPa South 5.6 mph /  9 km/h 9.0 mph /  14.5 km/h 80 % 0.00 in /  0 mm
18:51 79.1 °F /  26.2 °C 72.4 °F /  22.4 °C 29.76 in /  1007.7 hPa SSW 3.6 mph /  5.8 km/h 8.1 mph /  13 km/h 80 % 0.00 in /  0 mm
18:56 78.9 °F /  26.1 °C 72.2 °F /  22.3 °C 29.76 in /  1007.7 hPa East 4.3 mph /  6.9 km/h 9.2 mph /  14.8 km/h 80 % 0.00 in /  0 mm
19:01 78.7 °F /  25.9 °C 72.0 °F /  22.2 °C 29.76 in /  1007.7 hPa South 3.2 mph /  5.1 km/h 6.9 mph /  11.1 km/h 80 % 0.00 in /  0 mm
19:06 78.5 °F /  25.8 °C 72.2 °F /  22.3 °C 29.76 in /  1007.7 hPa SSW 3.1 mph /  5 km/h 6.9 mph /  11.1 km/h 81 % 0.00 in /  0 mm
19:11 78.2 °F /  25.7 °C 71.9 °F /  22.2 °C 29.76 in /  1007.7 hPa SW 3.6 mph /  5.8 km/h 4.6 mph /  7.4 km/h 81 % 0.00 in /  0 mm
19:16 77.9 °F /  25.5 °C 72.0 °F /  22.2 °C 29.76 in /  1007.7 hPa South 3.1 mph /  5 km/h 5.8 mph /  9.3 km/h 82 % 0.00 in /  0 mm
19:21 77.7 °F /  25.4 °C 71.8 °F /  22.1 °C 29.75 in /  1007.3 hPa South 2.4 mph /  3.9 km/h 4.6 mph /  7.4 km/h 82 % 0.00 in /  0 mm
19:26 77.5 °F /  25.3 °C 71.9 °F /  22.2 °C 29.76 in /  1007.7 hPa SW 1.1 mph /  1.8 km/h 4.6 mph /  7.4 km/h 83 % 0.00 in /  0 mm
19:31 77.3 °F /  25.2 °C 71.7 °F /  22.1 °C 29.76 in /  1007.7 hPa SE 1.8 mph /  2.9 km/h 3.5 mph /  5.6 km/h 83 % 0.00 in /  0 mm
19:36 76.9 °F /  24.9 °C 71.7 °F /  22.1 °C 29.75 in /  1007.3 hPa ESE 3.4 mph /  5.5 km/h 6.9 mph /  11.1 km/h 84 % 0.00 in /  0 mm
19:41 76.7 °F /  24.8 °C 71.5 °F /  21.9 °C 29.76 in /  1007.7 hPa SW 2.3 mph /  3.7 km/h 6.9 mph /  11.1 km/h 84 % 0.00 in /  0 mm
19:47 76.4 °F /  24.7 °C 71.6 °F /  22 °C 29.76 in /  1007.7 hPa SSW 3.6 mph /  5.8 km/h 6.9 mph /  11.1 km/h 85 % 0.00 in /  0 mm
19:52 76.2 °F /  24.6 °C 71.4 °F /  21.9 °C 29.76 in /  1007.7 hPa SSE 2.8 mph /  4.5 km/h 6.9 mph /  11.1 km/h 85 % 0.00 in /  0 mm
19:57 76.0 °F /  24.4 °C 71.2 °F /  21.8 °C 29.76 in /  1007.7 hPa South 2.1 mph /  3.4 km/h 4.6 mph /  7.4 km/h 85 % 0.00 in /  0 mm
20:02 75.9 °F /  24.4 °C 71.4 °F /  21.9 °C 29.76 in /  1007.7 hPa SSE 2.6 mph /  4.2 km/h 5.8 mph /  9.3 km/h 86 % 0.00 in /  0 mm
20:07 75.7 °F /  24.3 °C 71.2 °F /  21.8 °C 29.76 in /  1007.7 hPa South 3.5 mph /  5.6 km/h 9.2 mph /  14.8 km/h 86 % 0.00 in /  0 mm
20:12 75.5 °F /  24.2 °C 71.4 °F /  21.9 °C 29.76 in /  1007.7 hPa SE 1.4 mph /  2.3 km/h 3.5 mph /  5.6 km/h 87 % 0.00 in /  0 mm
20:17 75.3 °F /  24.1 °C 71.2 °F /  21.8 °C 29.76 in /  1007.7 hPa SSE 1.8 mph /  2.9 km/h 6.9 mph /  11.1 km/h 87 % 0.00 in /  0 mm
20:22 75.1 °F /  23.9 °C 71.0 °F /  21.7 °C 29.76 in /  1007.7 hPa SSE 1.6 mph /  2.6 km/h 4.0 mph /  6.4 km/h 87 % 0.00 in /  0 mm
20:27 74.8 °F /  23.8 °C 71.0 °F /  21.7 °C 29.76 in /  1007.7 hPa South 1.2 mph /  1.9 km/h 4.6 mph /  7.4 km/h 88 % 0.00 in /  0 mm
20:32 74.6 °F /  23.7 °C 70.8 °F /  21.6 °C 29.76 in /  1007.7 hPa SE 2.0 mph /  3.2 km/h 4.6 mph /  7.4 km/h 88 % 0.00 in /  0 mm
20:37 74.5 °F /  23.6 °C 71.0 °F /  21.7 °C 29.76 in /  1007.7 hPa South 1.5 mph /  2.4 km/h 3.5 mph /  5.6 km/h 89 % 0.00 in /  0 mm
20:42 74.4 °F /  23.6 °C 70.9 °F /  21.6 °C 29.76 in /  1007.7 hPa SSW 1.6 mph /  2.6 km/h 4.0 mph /  6.4 km/h 89 % 0.00 in /  0 mm
20:47 74.2 °F /  23.4 °C 70.7 °F /  21.5 °C 29.76 in /  1007.7 hPa SSE 0.8 mph /  1.3 km/h 4.6 mph /  7.4 km/h 89 % 0.00 in /  0 mm
20:52 74.1 °F /  23.4 °C 71.0 °F /  21.7 °C 29.76 in /  1007.7 hPa South 3.7 mph /  6 km/h 6.9 mph /  11.1 km/h 90 % 0.00 in /  0 mm
20:57 74.0 °F /  23.3 °C 70.9 °F /  21.6 °C 29.76 in /  1007.7 hPa WNW 3.1 mph /  5 km/h 10.4 mph /  16.7 km/h 90 % 0.00 in /  0 mm
21:02 73.9 °F /  23.3 °C 70.8 °F /  21.6 °C 29.76 in /  1007.7 hPa SW 2.9 mph /  4.7 km/h 6.9 mph /  11.1 km/h 90 % 0.00 in /  0 mm
21:08 73.9 °F /  23.3 °C 70.8 °F /  21.6 °C 29.76 in /  1007.7 hPa SSW 3.0 mph /  4.8 km/h 5.8 mph /  9.3 km/h 90 % 0.00 in /  0 mm
21:13 73.8 °F /  23.2 °C 70.7 °F /  21.5 °C 29.76 in /  1007.7 hPa SSE 2.1 mph /  3.4 km/h 8.1 mph /  13 km/h 90 % 0.00 in /  0 mm
21:18 73.7 °F /  23.2 °C 70.9 °F /  21.6 °C 29.76 in /  1007.7 hPa ESE 0.2 mph /  0.3 km/h 3.5 mph /  5.6 km/h 91 % 0.00 in /  0 mm
21:19 73.7 °F /  23.2 °C 70.9 °F /  21.6 °C 29.77 in /  1008 hPa SSE 0.9 mph /  1.4 km/h 3.5 mph /  5.6 km/h 91 % 0.00 in /  0 mm
21:24 73.7 °F /  23.2 °C 70.9 °F /  21.6 °C 29.77 in /  1008 hPa SW 1.6 mph /  2.6 km/h 6.9 mph /  11.1 km/h 91 % 0.00 in /  0 mm
21:29 73.6 °F /  23.1 °C 70.8 °F /  21.6 °C 29.77 in /  1008 hPa SE 2.1 mph /  3.4 km/h 4.6 mph /  7.4 km/h 91 % 0.00 in /  0 mm
21:34 73.6 °F /  23.1 °C 70.8 °F /  21.6 °C 29.77 in /  1008 hPa SSW 2.1 mph /  3.4 km/h 4.6 mph /  7.4 km/h 91 % 0.00 in /  0 mm
21:39 73.5 °F /  23.1 °C 70.7 °F /  21.5 °C 29.77 in /  1008 hPa SSW 0.5 mph /  0.8 km/h 4.0 mph /  6.4 km/h 91 % 0.00 in /  0 mm
21:44 73.5 °F /  23.1 °C 71.0 °F /  21.7 °C 29.77 in /  1008 hPa South 1.6 mph /  2.6 km/h 3.5 mph /  5.6 km/h 92 % 0.00 in /  0 mm
21:49 73.5 °F /  23.1 °C 71.0 °F /  21.7 °C 29.78 in /  1008.4 hPa South 2.0 mph /  3.2 km/h 4.6 mph /  7.4 km/h 92 % 0.00 in /  0 mm
21:54 73.5 °F /  23.1 °C 71.0 °F /  21.7 °C 29.77 in /  1008 hPa South 1.5 mph /  2.4 km/h 4.0 mph /  6.4 km/h 92 % 0.00 in /  0 mm
21:59 73.5 °F /  23.1 °C 71.0 °F /  21.7 °C 29.78 in /  1008.4 hPa SSE 1.4 mph /  2.3 km/h 3.5 mph /  5.6 km/h 92 % 0.00 in /  0 mm
22:04 73.5 °F /  23.1 °C 71.0 °F /  21.7 °C 29.78 in /  1008.4 hPa South 1.7 mph /  2.7 km/h 3.5 mph /  5.6 km/h 92 % 0.00 in /  0 mm
22:09 73.5 °F /  23.1 °C 71.0 °F /  21.7 °C 29.78 in /  1008.4 hPa SSW 3.5 mph /  5.6 km/h 8.1 mph /  13 km/h 92 % 0.00 in /  0 mm
22:14 73.5 °F /  23.1 °C 71.0 °F /  21.7 °C 29.78 in /  1008.4 hPa SSE 1.3 mph /  2.1 km/h 3.5 mph /  5.6 km/h 92 % 0.00 in /  0 mm
22:19 73.5 °F /  23.1 °C 71.0 °F /  21.7 °C 29.79 in /  1008.7 hPa South 1.8 mph /  2.9 km/h 6.9 mph /  11.1 km/h 92 % 0.00 in /  0 mm
22:24 73.5 °F /  23.1 °C 71.0 °F /  21.7 °C 29.79 in /  1008.7 hPa SSW 1.2 mph /  1.9 km/h 5.0 mph /  8 km/h 92 % 0.00 in /  0 mm
22:29 73.5 °F /  23.1 °C 71.4 °F /  21.9 °C 29.79 in /  1008.7 hPa SE 2.4 mph /  3.9 km/h 9.2 mph /  14.8 km/h 93 % 0.00 in /  0 mm
22:34 73.5 °F /  23.1 °C 71.4 °F /  21.9 °C 29.79 in /  1008.7 hPa SW 2.6 mph /  4.2 km/h 11.5 mph /  18.5 km/h 93 % 0.00 in /  0 mm
22:39 73.5 °F /  23.1 °C 71.4 °F /  21.9 °C 29.79 in /  1008.7 hPa SSE 2.6 mph /  4.2 km/h 6.9 mph /  11.1 km/h 93 % 0.00 in /  0 mm
22:44 73.5 °F /  23.1 °C 71.4 °F /  21.9 °C 29.79 in /  1008.7 hPa South 0.8 mph /  1.3 km/h 3.5 mph /  5.6 km/h 93 % 0.00 in /  0 mm
22:50 73.5 °F /  23.1 °C 71.4 °F /  21.9 °C 29.79 in /  1008.7 hPa South 4.6 mph /  7.4 km/h 8.1 mph /  13 km/h 93 % 0.00 in /  0 mm
22:55 73.5 °F /  23.1 °C 71.4 °F /  21.9 °C 29.79 in /  1008.7 hPa South 1.9 mph /  3.1 km/h 3.5 mph /  5.6 km/h 93 % 0.00 in /  0 mm
23:00 73.5 °F /  23.1 °C 71.4 °F /  21.9 °C 29.79 in /  1008.7 hPa SW 2.2 mph /  3.5 km/h 3.5 mph /  5.6 km/h 93 % 0.00 in /  0 mm
23:05 73.4 °F /  23 °C 71.3 °F /  21.8 °C 29.79 in /  1008.7 hPa South 2.5 mph /  4 km/h 3.5 mph /  5.6 km/h 93 % 0.00 in /  0 mm
23:10 73.5 °F /  23.1 °C 71.4 °F /  21.9 °C 29.79 in /  1008.7 hPa SSW 1.4 mph /  2.3 km/h 8.1 mph /  13 km/h 93 % 0.00 in /  0 mm
23:15 73.4 °F /  23 °C 71.3 °F /  21.8 °C 29.79 in /  1008.7 hPa SW 2.0 mph /  3.2 km/h 11.0 mph /  17.7 km/h 93 % 0.00 in /  0 mm
23:20 73.4 °F /  23 °C 71.3 °F /  21.8 °C 29.80 in /  1009 hPa South 1.4 mph /  2.3 km/h 4.6 mph /  7.4 km/h 93 % 0.00 in /  0 mm
23:25 73.4 °F /  23 °C 71.3 °F /  21.8 °C 29.80 in /  1009 hPa SSW 1.1 mph /  1.8 km/h 3.5 mph /  5.6 km/h 93 % 0.00 in /  0 mm
23:30 73.5 °F /  23.1 °C 71.4 °F /  21.9 °C 29.80 in /  1009 hPa SSW 3.5 mph /  5.6 km/h 5.8 mph /  9.3 km/h 93 % 0.00 in /  0 mm
23:35 73.5 °F /  23.1 °C 71.4 °F /  21.9 °C 29.80 in /  1009 hPa SSW 0.5 mph /  0.8 km/h 3.5 mph /  5.6 km/h 93 % 0.00 in /  0 mm
23:40 73.5 °F /  23.1 °C 71.4 °F /  21.9 °C 29.79 in /  1008.7 hPa SSE 2.4 mph /  3.9 km/h 11.5 mph /  18.5 km/h 93 % 0.00 in /  0 mm
23:45 73.6 °F /  23.1 °C 71.4 °F /  21.9 °C 29.80 in /  1009 hPa SSW 2.0 mph /  3.2 km/h 4.6 mph /  7.4 km/h 93 % 0.00 in /  0 mm
23:50 73.6 °F /  23.1 °C 71.4 °F /  21.9 °C 29.79 in /  1008.7 hPa SW 1.4 mph /  2.3 km/h 9.2 mph /  14.8 km/h 93 % 0.00 in /  0 mm
23:55 73.6 °F /  23.1 °C 71.4 °F /  21.9 °C 29.79 in /  1008.7 hPa SE 1.9 mph /  3.1 km/h 3.5 mph /  5.6 km/h 93 % 0.00 in /  0 mm
Crab Meadow Weather
Compliments of Weather Underground - 3 mb

Script developed by  Jim McMurry - jmcmurry@mwt.net Adapted for the template by  Wim van der Kuil - Leuven-Template.eu

Weather Terms: Dense Fog Advisory - Widespread dense fog reducing visibility to less than 1/4 mile.